Time;durP1;ratioP1;P1;durP2;ratioP2;P2;SDS_P1;SDS_P2;PMS_P1;PMS_P2;Temp;Humidity;BMP_temperature;BMP_pressure;BME280_temperature;BME280_humidity;BME280_pressure;Samples;Min_cycle;Max_cycle;Signal;HPM_P1;HPM_P2
2019/06/05 00:00:39;;;;;;;4.6;3.5;;;;;;;23.84;41.75977;993.7459;;;;
2019/06/05 00:03:04;;;;;;;5.6;3.8;;;;;;;23.84;41.7832;993.7229;;;;
2019/06/05 00:05:29;;;;;;;4.9;3.8;;;;;;;23.78;42.28516;993.7603;;;;
2019/06/05 00:07:54;;;;;;;4.4;4;;;;;;;23.76;42.52051;993.7507;;;;
2019/06/05 00:10:20;;;;;;;7.1;4;;;;;;;23.79;42.4043;993.7242;;;;
2019/06/05 00:12:46;;;;;;;6.4;4.1;;;;;;;23.74;42.44629;993.736;;;;
2019/06/05 00:15:12;;;;;;;4.5;3.7;;;;;;;23.76;42.2832;993.7617;;;;
2019/06/05 00:17:47;;;;;;;6.6;3.9;;;;;;;23.75;42.35352;993.8469;;;;
2019/06/05 00:20:13;;;;;;;5.8;3.8;;;;;;;23.71;42.67969;993.8666;;;;
2019/06/05 00:22:45;;;;;;;5.8;3.7;;;;;;;23.63;43.32031;993.8228;;;;
2019/06/05 00:25:03;;;;;;;6.1;3.7;;;;;;;23.48;43.7666;993.8201;;;;
2019/06/05 00:27:28;;;;;;;7.6;3.7;;;;;;;23.4;44.44141;993.7642;;;;
2019/06/05 00:29:53;;;;;;;5.6;4;;;;;;;23.31;44.60938;993.7349;;;;
2019/06/05 00:32:19;;;;;;;5.1;3.5;;;;;;;23.24;44.87402;993.6805;;;;
2019/06/05 00:34:44;;;;;;;6.8;4;;;;;;;23.21;45.04688;993.6494;;;;
2019/06/05 00:37:10;;;;;;;4.3;3.9;;;;;;;23.16;45.67773;993.6475;;;;
2019/06/05 00:39:35;;;;;;;5.9;3.8;;;;;;;23.12;45.5918;993.636;;;;
2019/06/05 00:42:00;;;;;;;5.8;3.8;;;;;;;23.09;45.66016;993.6312;;;;
2019/06/05 00:44:25;;;;;;;4.6;4;;;;;;;23.08;45.82422;993.6389;;;;
2019/06/05 00:46:50;;;;;;;4.8;3.7;;;;;;;23.07;45.52832;993.6143;;;;
2019/06/05 00:49:16;;;;;;;5.2;3.9;;;;;;;23.11;45.75488;993.5919;;;;
2019/06/05 00:51:41;;;;;;;4.9;3.9;;;;;;;23.12;46.45313;993.5917;;;;
2019/06/05 00:54:06;;;;;;;5.9;3.7;;;;;;;23.07;47.30762;993.6074;;;;
2019/06/05 00:56:32;;;;;;;4.1;3.7;;;;;;;22.97;48.05078;993.6961;;;;
2019/06/05 00:58:57;;;;;;;5.2;4.3;;;;;;;22.78;48.93652;993.709;;;;
2019/06/05 01:01:22;;;;;;;7.8;4;;;;;;;22.74;47.56641;993.6569;;;;
2019/06/05 01:03:47;;;;;;;5.7;4;;;;;;;22.68;47.74805;993.6358;;;;
2019/06/05 01:06:12;;;;;;;4.2;3.7;;;;;;;22.68;46.91309;993.618;;;;
2019/06/05 01:08:37;;;;;;;6.7;4;;;;;;;22.7;46.86816;993.6241;;;;
2019/06/05 01:11:02;;;;;;;7.9;3.8;;;;;;;22.67;47.19336;993.5872;;;;
2019/06/05 01:13:28;;;;;;;7.2;3.9;;;;;;;22.67;47.44043;993.4871;;;;
2019/06/05 01:15:53;;;;;;;5.1;4;;;;;;;22.66;48.59277;993.4306;;;;
2019/06/05 01:18:18;;;;;;;6.4;4.1;;;;;;;22.66;47.94531;993.4715;;;;
2019/06/05 01:20:43;;;;;;;5;3.8;;;;;;;22.54;48.14355;993.5176;;;;
2019/06/05 01:23:08;;;;;;;6.2;3.6;;;;;;;22.53;47.9668;993.5062;;;;
2019/06/05 01:25:33;;;;;;;5.6;3.6;;;;;;;22.53;48.33105;993.5252;;;;
2019/06/05 01:27:58;;;;;;;7.2;3.8;;;;;;;22.51;48.24805;993.4375;;;;
2019/06/05 01:30:23;;;;;;;4.9;3.9;;;;;;;22.53;48.24902;993.4735;;;;
2019/06/05 01:32:48;;;;;;;5.6;3.8;;;;;;;22.46;48.99512;993.4945;;;;
2019/06/05 01:35:14;;;;;;;6.6;3.8;;;;;;;22.42;49.13184;993.4832;;;;
2019/06/05 01:37:42;;;;;;;6.5;4;;;;;;;22.39;49.27051;993.4146;;;;
2019/06/05 01:40:04;;;;;;;5.2;3.9;;;;;;;22.39;49.39844;993.4175;;;;
2019/06/05 01:42:29;;;;;;;5.6;3.8;;;;;;;22.33;49.68652;993.4278;;;;
2019/06/05 01:45:14;;;;;;;4.8;4;;;;;;;22.3;51.44629;993.4799;;;;
2019/06/05 01:47:41;;;;;;;7.9;4.3;;;;;;;22.25;50.24219;993.4727;;;;
2019/06/05 01:50:06;;;;;;;8.6;4.3;;;;;;;22.23;49.75684;993.5051;;;;
2019/06/05 01:52:31;;;;;;;7.5;4.1;;;;;;;22.23;50.09766;993.5494;;;;
2019/06/05 01:54:56;;;;;;;5.4;3.9;;;;;;;22.36;49.25293;993.5762;;;;
2019/06/05 01:57:21;;;;;;;6.2;3.9;;;;;;;22.34;48.93359;993.561;;;;
2019/06/05 01:59:46;;;;;;;8.3;3.8;;;;;;;22.34;48.93457;993.5742;;;;
2019/06/05 02:02:11;;;;;;;7.3;3.9;;;;;;;22.33;48.58105;993.5117;;;;
2019/06/05 02:04:36;;;;;;;4.5;3.6;;;;;;;22.4;48.64746;993.5047;;;;
2019/06/05 02:07:04;;;;;;;4.1;3.7;;;;;;;22.43;48.22754;993.5204;;;;
2019/06/05 02:09:30;;;;;;;5.7;3.4;;;;;;;22.69;46.48926;993.5283;;;;
2019/06/05 02:11:55;;;;;;;7.4;3.5;;;;;;;22.76;46.75684;993.4835;;;;
2019/06/05 02:14:20;;;;;;;5.4;3;;;;;;;22.83;45.71484;993.4797;;;;
2019/06/05 02:16:45;;;;;;;6;3;;;;;;;22.93;45.47754;993.4612;;;;
2019/06/05 02:19:10;;;;;;;5.4;3.2;;;;;;;22.98;45.27148;993.5338;;;;
2019/06/05 02:21:35;;;;;;;5.4;2.8;;;;;;;22.99;45.30762;993.5636;;;;
2019/06/05 02:24:00;;;;;;;6.8;3;;;;;;;22.94;45.58594;993.4921;;;;
2019/06/05 02:26:25;;;;;;;7;3.3;;;;;;;22.92;45.5127;993.4994;;;;
2019/06/05 02:28:50;;;;;;;5.2;3.3;;;;;;;22.91;45.6416;993.4938;;;;
2019/06/05 02:31:15;;;;;;;5.2;3.3;;;;;;;22.9;45.62891;993.5323;;;;
2019/06/05 02:33:40;;;;;;;10.1;3.1;;;;;;;22.89;45.69824;993.5136;;;;
2019/06/05 02:36:05;;;;;;;7;3.1;;;;;;;22.91;45.6543;993.5069;;;;
2019/06/05 02:38:30;;;;;;;6.5;3.2;;;;;;;22.87;45.84863;993.5287;;;;
2019/06/05 02:41:00;;;;;;;8.7;3.5;;;;;;;22.87;45.79004;993.5524;;;;
2019/06/05 02:43:27;;;;;;;7.1;3.3;;;;;;;22.8;46.07715;993.5778;;;;
2019/06/05 02:45:57;;;;;;;5.5;3.1;;;;;;;22.75;46.23633;993.5225;;;;
2019/06/05 02:48:22;;;;;;;6.8;3.1;;;;;;;22.61;46.63477;993.502;;;;
2019/06/05 02:50:47;;;;;;;8.3;3.4;;;;;;;22.59;46.77344;993.5247;;;;
2019/06/05 02:53:12;;;;;;;6.2;3.2;;;;;;;22.48;47.22168;993.5632;;;;
2019/06/05 02:55:37;;;;;;;6.3;3.7;;;;;;;22.44;47.30957;993.5756;;;;
2019/06/05 02:58:02;;;;;;;6.5;3.5;;;;;;;22.37;47.32617;993.604;;;;
2019/06/05 03:00:27;;;;;;;6.6;3.4;;;;;;;22.25;47.50195;993.5726;;;;
2019/06/05 03:02:52;;;;;;;6.5;3.6;;;;;;;22.2;47.87305;993.5865;;;;
2019/06/05 03:05:18;;;;;;;6.6;3.4;;;;;;;22.24;47.40625;993.5694;;;;
2019/06/05 03:07:43;;;;;;;5.4;3.4;;;;;;;22.09;47.7793;993.6047;;;;
2019/06/05 03:10:08;;;;;;;8.7;3.5;;;;;;;22.09;47.82715;993.6305;;;;
2019/06/05 03:12:33;;;;;;;6;3.7;;;;;;;22.05;47.97461;993.6635;;;;
2019/06/05 03:14:58;;;;;;;6;3.4;;;;;;;22.02;48.1709;993.6236;;;;
2019/06/05 03:17:23;;;;;;;4.2;3.5;;;;;;;21.95;48.4209;993.6439;;;;
2019/06/05 03:19:48;;;;;;;6.3;3.4;;;;;;;21.9;48.46289;993.6379;;;;
2019/06/05 03:22:13;;;;;;;6;3.4;;;;;;;21.81;48.85352;993.6788;;;;
2019/06/05 03:24:38;;;;;;;5.5;3.5;;;;;;;21.79;49.02734;993.6269;;;;
2019/06/05 03:27:03;;;;;;;7.2;3.4;;;;;;;21.76;49.5166;993.6286;;;;
2019/06/05 03:29:29;;;;;;;7.3;3.8;;;;;;;21.72;49.44141;993.5991;;;;
2019/06/05 03:31:54;;;;;;;8.5;3.4;;;;;;;21.71;49.79297;993.6355;;;;
2019/06/05 03:34:19;;;;;;;6.8;3.4;;;;;;;21.63;50.00586;993.625;;;;
2019/06/05 03:36:44;;;;;;;4.3;3.5;;;;;;;21.56;50.53906;993.6299;;;;
2019/06/05 03:39:09;;;;;;;4.2;3.3;;;;;;;21.58;50.37793;993.6036;;;;
2019/06/05 03:41:34;;;;;;;6.5;3.5;;;;;;;21.68;50.08301;993.6191;;;;
2019/06/05 03:43:59;;;;;;;8.9;3.7;;;;;;;21.66;50.40918;993.6531;;;;
2019/06/05 03:46:24;;;;;;;4.1;3.2;;;;;;;21.69;50.33008;993.6276;;;;
2019/06/05 03:48:51;;;;;;;7.7;3.3;;;;;;;21.75;50.18457;993.647;;;;
2019/06/05 03:51:16;;;;;;;4.4;3.4;;;;;;;21.78;50.24609;993.709;;;;
2019/06/05 03:53:41;;;;;;;10.3;6.5;;;;;;;21.82;50.16895;993.6777;;;;
2019/06/05 03:56:07;;;;;;;6.3;3.4;;;;;;;21.88;49.88281;993.6887;;;;
2019/06/05 03:58:32;;;;;;;8.5;3.6;;;;;;;22.03;49.54688;993.7544;;;;
2019/06/05 04:02:28;;;;;;;7.8;3.4;;;;;;;22.43;48.01563;993.8618;;;;
2019/06/05 04:04:53;;;;;;;4.3;3.2;;;;;;;22.37;48.39551;993.8033;;;;
2019/06/05 04:07:18;;;;;;;7.7;3.3;;;;;;;22.51;48.02441;993.8719;;;;
2019/06/05 04:09:52;;;;;;;7.2;3.3;;;;;;;22.5;48.55273;993.841;;;;
2019/06/05 04:12:17;;;;;;;6.5;3.5;;;;;;;22.5;48.34082;993.8853;;;;
2019/06/05 04:14:43;;;;;;;6.7;3.6;;;;;;;22.63;48.17773;993.9494;;;;
2019/06/05 04:17:08;;;;;;;7.6;3.7;;;;;;;22.61;47.91699;993.967;;;;
2019/06/05 04:19:34;;;;;;;5.4;3.3;;;;;;;22.73;47.50684;994.0485;;;;
2019/06/05 04:21:59;;;;;;;8.1;3.5;;;;;;;22.77;47.34473;994.0997;;;;
2019/06/05 04:24:24;;;;;;;6.2;3.6;;;;;;;22.9;47.00586;994.1488;;;;
2019/06/05 04:26:50;;;;;;;7.7;3.2;;;;;;;22.86;47.2959;994.1727;;;;
2019/06/05 04:29:15;;;;;;;7.9;3.6;;;;;;;22.99;46.76855;994.1794;;;;
2019/06/05 04:31:40;;;;;;;9.2;3;;;;;;;22.99;47.08691;994.1961;;;;
2019/06/05 04:34:05;;;;;;;7.5;3.3;;;;;;;23.08;46.70703;994.1836;;;;
2019/06/05 04:36:32;;;;;;;6.6;3.4;;;;;;;23.21;46.14355;994.2073;;;;
2019/06/05 04:38:58;;;;;;;5.4;3.4;;;;;;;23.23;46.4043;994.2145;;;;
2019/06/05 04:41:22;;;;;;;6.5;3.3;;;;;;;23.44;46.09668;994.259;;;;
2019/06/05 04:43:48;;;;;;;6.4;3.3;;;;;;;23.72;45.3584;994.2975;;;;
2019/06/05 04:46:13;;;;;;;5.6;3.4;;;;;;;24.09;44.60547;994.2438;;;;
2019/06/05 04:48:38;;;;;;;5.9;3.1;;;;;;;24.14;44.09082;994.2698;;;;
2019/06/05 04:51:03;;;;;;;6.5;3.2;;;;;;;24.44;43.13867;994.2964;;;;
2019/06/05 04:53:28;;;;;;;7.2;3.1;;;;;;;24.71;42.51563;994.2831;;;;
2019/06/05 04:55:53;;;;;;;6.9;3.1;;;;;;;25.05;41.95703;994.2723;;;;
2019/06/05 04:58:18;;;;;;;8;3.2;;;;;;;25.65;40.23535;994.3173;;;;
2019/06/05 05:00:43;;;;;;;7.3;3.3;;;;;;;25.18;41.75586;994.3427;;;;
2019/06/05 05:03:08;;;;;;;8.1;3.4;;;;;;;25.18;41.37695;994.3806;;;;
2019/06/05 05:05:40;;;;;;;7.3;3.2;;;;;;;25.26;41.62109;994.3994;;;;
2019/06/05 05:08:06;;;;;;;6.6;3;;;;;;;25.21;41.5332;994.391;;;;
2019/06/05 05:10:31;;;;;;;10.1;3.7;;;;;;;25.27;41.52734;994.4395;;;;
2019/06/05 05:12:57;;;;;;;9.7;3.2;;;;;;;25.56;41.1875;994.535;;;;
2019/06/05 05:15:22;;;;;;;11.6;3.7;;;;;;;25.34;41.30762;994.6111;;;;
2019/06/05 05:17:47;;;;;;;7.2;3.4;;;;;;;25.59;40.8457;994.6169;;;;
2019/06/05 05:20:12;;;;;;;8.6;3.3;;;;;;;25.31;41.50684;994.4728;;;;
2019/06/05 05:22:38;;;;;;;14.6;4.2;;;;;;;25.85;41.08301;994.2783;;;;
2019/06/05 05:25:03;;;;;;;11.6;3.5;;;;;;;26.24;41.1543;994.1979;;;;
2019/06/05 05:27:29;;;;;;;6.2;3.2;;;;;;;26.63;40.28809;994.3948;;;;
2019/06/05 05:29:55;;;;;;;8.3;3.5;;;;;;;26.67;39.60254;994.6635;;;;
2019/06/05 05:32:19;;;;;;;9.1;3.2;;;;;;;26.7;39.92578;994.8192;;;;
2019/06/05 05:34:45;;;;;;;9.5;3.4;;;;;;;26.5;39.65918;994.9077;;;;
2019/06/05 05:37:10;;;;;;;6.6;3;;;;;;;26.64;39.44531;994.8237;;;;
2019/06/05 05:39:35;;;;;;;7.4;3.1;;;;;;;26.72;39.5;994.8396;;;;
2019/06/05 05:42:00;;;;;;;7;3.1;;;;;;;26.81;39.41309;994.6805;;;;
2019/06/05 05:44:25;;;;;;;5.8;3.3;;;;;;;26.55;39.8418;994.6362;;;;
2019/06/05 05:46:50;;;;;;;5.3;3.4;;;;;;;26.46;39.80957;994.3934;;;;
2019/06/05 05:49:15;;;;;;;8.2;3.2;;;;;;;25.87;42.30566;994.178;;;;
2019/06/05 05:51:40;;;;;;;6.6;3.1;;;;;;;25.26;44.98242;994.3272;;;;
2019/06/05 05:54:05;;;;;;;5.1;3.2;;;;;;;25.05;45.21094;994.4103;;;;
2019/06/05 05:56:46;;;;;;;8.6;3.5;;;;;;;24.96;46.41992;994.3717;;;;
2019/06/05 05:59:12;;;;;;;7.2;3.7;;;;;;;25.02;43.77637;994.1142;;;;
2019/06/05 06:01:37;;;;;;;7.5;3.3;;;;;;;25.34;45.42773;993.8798;;;;
2019/06/05 06:04:03;;;;;;;5.3;3.4;;;;;;;24.72;48.22754;993.9756;;;;
2019/06/05 06:06:29;;;;;;;8.7;3.4;;;;;;;24.34;48.83496;994.1939;;;;
2019/06/05 06:08:55;;;;;;;5.8;3.4;;;;;;;24.16;47.18555;994.2988;;;;
2019/06/05 06:11:21;;;;;;;6.4;3.7;;;;;;;24.01;48.16211;994.3631;;;;
2019/06/05 06:13:46;;;;;;;5.8;3.4;;;;;;;24.25;47.53906;994.4966;;;;
2019/06/05 06:16:11;;;;;;;7.2;3.6;;;;;;;24.28;47.3291;994.6259;;;;
2019/06/05 06:18:36;;;;;;;9.3;3.7;;;;;;;24.38;47.71875;994.4902;;;;
2019/06/05 06:21:01;;;;;;;6.3;3.3;;;;;;;24.26;47.37305;994.5597;;;;
2019/06/05 06:23:26;;;;;;;9.5;4;;;;;;;24.25;48.73145;994.4984;;;;
2019/06/05 06:25:51;;;;;;;8.4;3.7;;;;;;;24.15;49.87793;994.4109;;;;
2019/06/05 06:28:17;;;;;;;9.3;3.8;;;;;;;23.79;54.65039;994.6175;;;;
2019/06/05 06:30:42;;;;;;;8.1;3.9;;;;;;;23.52;56.16211;994.5761;;;;
2019/06/05 06:33:07;;;;;;;7.4;3.5;;;;;;;23.47;49.82617;994.5178;;;;
2019/06/05 06:35:36;;;;;;;8.3;3.5;;;;;;;23.31;52.91992;994.4448;;;;
2019/06/05 06:38:01;;;;;;;7.1;3.7;;;;;;;23.15;56.08105;994.4962;;;;
2019/06/05 06:40:26;;;;;;;10.2;4.3;;;;;;;23.38;58.75;994.4326;;;;
2019/06/05 06:42:54;;;;;;;8.2;4.5;;;;;;;23.32;60.89844;994.4816;;;;
2019/06/05 06:45:22;;;;;;;8.6;5;;;;;;;23.25;62.81152;994.3591;;;;
2019/06/05 06:47:47;;;;;;;13.7;7.5;;;;;;;23.11;64.18262;994.3614;;;;
2019/06/05 06:50:25;;;;;;;11.6;5.5;;;;;;;22.87;65.71191;994.5125;;;;
2019/06/05 06:52:51;;;;;;;11.3;5.2;;;;;;;22.7;65.08789;994.5972;;;;
2019/06/05 06:55:16;;;;;;;13.3;5.1;;;;;;;22.71;64.41797;994.7845;;;;
2019/06/05 06:57:41;;;;;;;7.7;4.8;;;;;;;22.7;64.70996;994.7594;;;;
2019/06/05 07:00:06;;;;;;;12.2;5.5;;;;;;;22.73;64.86621;994.7625;;;;
2019/06/05 07:02:31;;;;;;;11.5;5;;;;;;;22.73;63.26758;994.8527;;;;
2019/06/05 07:04:56;;;;;;;8.5;4.8;;;;;;;22.94;62.71973;994.8832;;;;
2019/06/05 07:07:21;;;;;;;7.6;3.6;;;;;;;23.16;54.8916;994.9352;;;;
2019/06/05 07:09:46;;;;;;;11.6;3.6;;;;;;;23.32;53.75781;995.0023;;;;
2019/06/05 07:12:11;;;;;;;7;3.8;;;;;;;23.52;56.58789;995.0451;;;;
2019/06/05 07:14:36;;;;;;;8;4.3;;;;;;;23.67;54.07031;995.0475;;;;
2019/06/05 07:17:02;;;;;;;9.4;3.9;;;;;;;23.71;53.94629;995.0503;;;;
2019/06/05 07:19:27;;;;;;;11.2;3.9;;;;;;;23.66;54.45801;995.0798;;;;
2019/06/05 07:21:52;;;;;;;7.4;3.5;;;;;;;23.65;53.67773;995.0983;;;;
2019/06/05 07:24:17;;;;;;;8.9;4;;;;;;;23.68;52.57422;995.0731;;;;
2019/06/05 07:26:42;;;;;;;11.9;3.7;;;;;;;23.77;54.36523;995.0572;;;;
2019/06/05 07:29:08;;;;;;;5.7;3.7;;;;;;;23.9;54.14453;995.0208;;;;
2019/06/05 07:31:32;;;;;;;8.6;3.8;;;;;;;24.24;52.0957;995.0195;;;;
2019/06/05 07:33:58;;;;;;;9;3.6;;;;;;;24.32;49.43652;995.1301;;;;
2019/06/05 07:36:23;;;;;;;8.9;3.8;;;;;;;24.56;50.4082;995.0688;;;;
2019/06/05 07:38:48;;;;;;;5.8;3.7;;;;;;;24.64;49.01074;995.0575;;;;
2019/06/05 07:41:16;;;;;;;5.7;3.7;;;;;;;25.73;46.22656;995.0307;;;;
2019/06/05 07:43:41;;;;;;;7.4;3.6;;;;;;;25.65;47.4375;995.0041;;;;
2019/06/05 07:46:07;;;;;;;6.9;3.9;;;;;;;25.87;46.50293;995.0063;;;;
2019/06/05 07:48:32;;;;;;;7.2;3.9;;;;;;;26.18;45.19434;994.9913;;;;
2019/06/05 07:50:57;;;;;;;8.4;3.9;;;;;;;25.68;48.44922;995.0273;;;;
2019/06/05 07:53:22;;;;;;;6.9;3.3;;;;;;;26.18;45.95313;995.0389;;;;
2019/06/05 07:55:47;;;;;;;6.9;3.5;;;;;;;25.86;44.56836;995.0165;;;;
2019/06/05 07:58:13;;;;;;;9.4;3.4;;;;;;;25.75;45.69531;994.9564;;;;
2019/06/05 08:00:38;;;;;;;8.4;3.9;;;;;;;25.44;48.57715;994.9745;;;;
2019/06/05 08:03:03;;;;;;;7.8;3.8;;;;;;;25.32;46.33789;994.9395;;;;
2019/06/05 08:05:29;;;;;;;6;3.3;;;;;;;25.29;45.22168;994.8755;;;;
2019/06/05 08:07:53;;;;;;;9.4;3.5;;;;;;;25.29;46.03906;994.9252;;;;
2019/06/05 08:10:18;;;;;;;8.1;3;;;;;;;26.53;43.29297;994.9387;;;;
2019/06/05 08:12:43;;;;;;;6;3.3;;;;;;;27.5;39.29492;994.8569;;;;
2019/06/05 08:15:08;;;;;;;5.6;3.7;;;;;;;28.27;37.32422;994.8162;;;;
2019/06/05 08:17:33;;;;;;;5.5;3;;;;;;;30.57;33.55078;994.8242;;;;
2019/06/05 08:20:07;;;;;;;6.2;2.9;;;;;;;31.31;30.49805;994.7758;;;;
2019/06/05 08:22:34;;;;;;;5;2.8;;;;;;;32.7;28.67773;994.7184;;;;
2019/06/05 08:24:59;;;;;;;5.4;3.1;;;;;;;31.89;30.84961;994.693;;;;
2019/06/05 08:27:25;;;;;;;6.9;3.3;;;;;;;31.99;29.28223;994.6667;;;;
2019/06/05 08:29:49;;;;;;;7.1;3.7;;;;;;;32.27;28.4707;994.6415;;;;
2019/06/05 08:32:14;;;;;;;6.3;2.9;;;;;;;32.27;26.96777;994.6661;;;;
2019/06/05 08:34:39;;;;;;;7.1;3.1;;;;;;;31.87;27.32813;994.6636;;;;
2019/06/05 08:37:06;;;;;;;6.1;3;;;;;;;32.81;26.07324;994.6984;;;;
2019/06/05 08:39:31;;;;;;;8.2;3;;;;;;;32.55;27.24902;994.6841;;;;
2019/06/05 08:41:56;;;;;;;5.1;2.8;;;;;;;33.03;26.18164;994.6778;;;;
2019/06/05 08:44:21;;;;;;;6.3;2.8;;;;;;;33.25;26.44727;994.6619;;;;
2019/06/05 08:46:46;;;;;;;5.7;2.7;;;;;;;32.93;26.39258;994.6305;;;;
2019/06/05 08:49:12;;;;;;;4.4;2.7;;;;;;;32.55;27.20117;994.6692;;;;
2019/06/05 08:51:37;;;;;;;5.5;2.8;;;;;;;32.26;28.02539;994.6323;;;;
2019/06/05 08:54:02;;;;;;;8.2;2.8;;;;;;;31.84;27.49512;994.6409;;;;
2019/06/05 08:56:27;;;;;;;7;2.5;;;;;;;31.54;25.83203;994.6542;;;;
2019/06/05 08:58:52;;;;;;;5.6;2.4;;;;;;;33.08;23.72754;994.6294;;;;
2019/06/05 09:01:21;;;;;;;6;2.5;;;;;;;33.21;22.5293;994.6324;;;;
2019/06/05 09:03:46;;;;;;;4;2.5;;;;;;;33.06;23.12402;994.6889;;;;
2019/06/05 09:06:11;;;;;;;4.3;2.2;;;;;;;32.94;22.47949;994.6945;;;;
2019/06/05 09:08:36;;;;;;;3.4;2.1;;;;;;;33.93;20.50195;994.6121;;;;
2019/06/05 09:11:01;;;;;;;4.4;2.2;;;;;;;33.03;21.37598;994.6064;;;;
2019/06/05 09:13:26;;;;;;;6.8;2.3;;;;;;;33.81;20.19434;994.5647;;;;
2019/06/05 09:15:52;;;;;;;5.4;2.3;;;;;;;34.86;18.80176;994.5683;;;;
2019/06/05 09:18:18;;;;;;;3.2;2.1;;;;;;;34.75;19.35449;994.5446;;;;
2019/06/05 09:20:43;;;;;;;2.5;2.1;;;;;;;34.96;19.79785;994.5331;;;;
2019/06/05 09:23:08;;;;;;;4;2.3;;;;;;;34.07;21.00293;994.4686;;;;
2019/06/05 09:25:34;;;;;;;4.4;2.5;;;;;;;34.8;20.68555;994.5592;;;;
2019/06/05 09:27:59;;;;;;;4.1;2.1;;;;;;;35.26;19.3877;994.5613;;;;
2019/06/05 09:30:24;;;;;;;6.3;2.3;;;;;;;35.32;19.45117;994.4941;;;;
2019/06/05 09:32:49;;;;;;;4.3;2.1;;;;;;;34.63;20.42383;994.5014;;;;
2019/06/05 09:35:14;;;;;;;6.8;2.5;;;;;;;35.26;19.6543;994.4703;;;;
2019/06/05 09:37:39;;;;;;;3.1;2.1;;;;;;;36.21;19.45215;994.4533;;;;
2019/06/05 09:40:04;;;;;;;4.6;2.2;;;;;;;36.29;19.03125;994.3508;;;;
2019/06/05 09:42:29;;;;;;;4.5;1.9;;;;;;;36.47;18.91699;994.3264;;;;
2019/06/05 09:44:54;;;;;;;2.7;2;;;;;;;36.9;18.69238;994.3122;;;;
2019/06/05 09:47:19;;;;;;;2.6;2;;;;;;;36.33;18.89941;994.2639;;;;
2019/06/05 09:49:44;;;;;;;5.4;2.4;;;;;;;36.23;20.1084;994.2208;;;;
2019/06/05 09:52:10;;;;;;;3.6;2.1;;;;;;;36.22;19.14941;994.225;;;;
2019/06/05 09:54:35;;;;;;;4.7;2.1;;;;;;;36.59;19.39551;994.217;;;;
2019/06/05 09:57:00;;;;;;;5.4;2.4;;;;;;;37.41;18.76074;994.2144;;;;
2019/06/05 09:59:25;;;;;;;3.9;2.4;;;;;;;35.99;20.08496;994.2411;;;;
2019/06/05 10:01:50;;;;;;;4.2;2.4;;;;;;;36.92;18.46191;994.1241;;;;
2019/06/05 10:04:16;;;;;;;4;2.4;;;;;;;36.52;19.59863;994.1195;;;;
2019/06/05 10:06:40;;;;;;;2.7;2.4;;;;;;;35.7;19.90332;994.1407;;;;
2019/06/05 10:09:06;;;;;;;3.7;2.6;;;;;;;35.07;21.16992;994.1206;;;;
2019/06/05 10:11:31;;;;;;;4.1;2.5;;;;;;;35.35;20.6377;994.0515;;;;
2019/06/05 10:13:57;;;;;;;4.7;2.5;;;;;;;35.64;20.43262;994.0454;;;;
2019/06/05 10:16:23;;;;;;;5.6;2.5;;;;;;;35.83;19.84766;994.0259;;;;
2019/06/05 10:18:48;;;;;;;5.8;2.6;;;;;;;35.69;20.09668;993.9656;;;;
2019/06/05 10:21:13;;;;;;;4.6;2.4;;;;;;;36.36;19.61621;994.009;;;;
2019/06/05 10:23:38;;;;;;;3.8;2.6;;;;;;;35.98;19.98828;993.9175;;;;
2019/06/05 10:26:04;;;;;;;5.5;2.5;;;;;;;35.13;21.52344;994.0019;;;;
2019/06/05 10:28:29;;;;;;;9.7;5.3;;;;;;;36.12;21.13379;993.9716;;;;
2019/06/05 10:30:54;;;;;;;4.3;2.1;;;;;;;35.86;18.27441;993.9869;;;;
2019/06/05 10:33:19;;;;;;;2.9;2.1;;;;;;;34.87;18.56152;993.9753;;;;
2019/06/05 10:35:44;;;;;;;4.1;2.3;;;;;;;34.01;20.28809;993.84;;;;
2019/06/05 10:38:09;;;;;;;5.8;2.2;;;;;;;33.66;21.65918;993.7431;;;;
2019/06/05 10:40:34;;;;;;;3.4;2.2;;;;;;;33.17;21.34668;993.7123;;;;
2019/06/05 10:42:59;;;;;;;1.9;1.7;;;;;;;32.02;19.12988;993.7503;;;;
2019/06/05 10:45:24;;;;;;;2.8;2;;;;;;;32.11;18.96582;993.7132;;;;
2019/06/05 10:47:49;;;;;;;2.7;1.7;;;;;;;32.19;19.5459;993.7586;;;;
2019/06/05 10:50:14;;;;;;;3.9;2.1;;;;;;;31.5;18.53125;993.6389;;;;
2019/06/05 10:52:40;;;;;;;2.7;1.9;;;;;;;31.86;20.2168;993.6085;;;;
2019/06/05 10:55:05;;;;;;;5;2;;;;;;;32.1;20.50293;993.606;;;;
2019/06/05 10:57:30;;;;;;;4.8;2.1;;;;;;;31.95;21.38574;993.606;;;;
2019/06/05 10:59:55;;;;;;;2.8;1.7;;;;;;;32.1;20.11914;993.6445;;;;
2019/06/05 11:02:20;;;;;;;3.2;1.9;;;;;;;31.86;20.25195;993.6163;;;;
2019/06/05 11:04:45;;;;;;;3.7;1.8;;;;;;;31.86;20.48047;993.6027;;;;
2019/06/05 11:07:10;;;;;;;3.4;1.8;;;;;;;32.12;19.8916;993.5925;;;;
2019/06/05 11:09:35;;;;;;;3.9;1.7;;;;;;;32.07;20.25;993.5165;;;;
2019/06/05 11:12:01;;;;;;;2.6;1.6;;;;;;;32.31;20.30859;993.5342;;;;
2019/06/05 11:14:26;;;;;;;2.8;1.9;;;;;;;32.32;19.43066;993.5111;;;;
2019/06/05 11:16:51;;;;;;;4.1;2.2;;;;;;;32.35;19.85352;993.4676;;;;
2019/06/05 11:19:16;;;;;;;2.4;1.8;;;;;;;32.63;19.9375;993.4586;;;;
2019/06/05 11:21:41;;;;;;;4.5;1.8;;;;;;;32.42;19.84375;993.4433;;;;
2019/06/05 11:24:06;;;;;;;3.3;1.7;;;;;;;32.28;18.81641;993.4077;;;;
2019/06/05 11:26:31;;;;;;;2.7;1.9;;;;;;;32.15;20.21777;993.3625;;;;
2019/06/05 11:28:56;;;;;;;2.6;1.9;;;;;;;32.06;19.36035;993.2828;;;;
2019/06/05 11:31:22;;;;;;;4.5;2;;;;;;;32.38;19.27734;993.2177;;;;
2019/06/05 11:33:47;;;;;;;3.9;1.8;;;;;;;32.26;19.8252;993.2224;;;;
2019/06/05 11:36:12;;;;;;;4.9;1.8;;;;;;;32.54;19.65723;993.2086;;;;
2019/06/05 11:38:37;;;;;;;3.4;1.9;;;;;;;32.45;19.43652;993.1646;;;;
2019/06/05 11:41:02;;;;;;;3.4;2.2;;;;;;;32.32;20.59766;993.1465;;;;
2019/06/05 11:43:27;;;;;;;2.8;2;;;;;;;32.45;19.70117;993.0775;;;;
2019/06/05 11:45:52;;;;;;;2.2;1.9;;;;;;;32.77;19.93164;993.0353;;;;
2019/06/05 11:48:17;;;;;;;2.5;1.9;;;;;;;32.2;21.07324;993.0269;;;;
2019/06/05 11:50:43;;;;;;;2.5;1.9;;;;;;;32.21;21.29004;993.0095;;;;
2019/06/05 11:53:08;;;;;;;3.7;1.9;;;;;;;32.56;21.36719;992.9233;;;;
2019/06/05 11:55:33;;;;;;;2.9;2.2;;;;;;;32.63;20.85254;992.8875;;;;
2019/06/05 11:57:58;;;;;;;2.7;2.2;;;;;;;33.09;20.22266;992.8114;;;;
2019/06/05 12:00:24;;;;;;;4.4;2.2;;;;;;;32.92;19.69824;992.7819;;;;
2019/06/05 12:02:49;;;;;;;2.2;2;;;;;;;32.36;20.43066;992.7794;;;;
2019/06/05 12:05:14;;;;;;;4.2;1.9;;;;;;;32.5;19.78711;992.7767;;;;
2019/06/05 12:07:39;;;;;;;4.1;2.3;;;;;;;32.9;19.63672;992.7459;;;;
2019/06/05 12:10:04;;;;;;;4.2;2.3;;;;;;;32.17;21.22754;992.7407;;;;
2019/06/05 12:12:29;;;;;;;3.7;2.1;;;;;;;31.61;21.50195;992.6919;;;;
2019/06/05 12:14:54;;;;;;;4.1;2.3;;;;;;;31.43;22.75391;992.7142;;;;
2019/06/05 12:17:20;;;;;;;2.7;1.9;;;;;;;30.95;21.92676;992.7161;;;;
2019/06/05 12:19:45;;;;;;;3.7;1.9;;;;;;;30.76;22.13281;992.6239;;;;
2019/06/05 12:22:10;;;;;;;4.1;2.2;;;;;;;31.23;22.81543;992.6125;;;;
2019/06/05 12:24:35;;;;;;;3.3;1.9;;;;;;;31.39;21.38281;992.5991;;;;
2019/06/05 12:27:00;;;;;;;3.9;1.9;;;;;;;30.62;21.01172;992.5958;;;;
2019/06/05 12:29:25;;;;;;;1.8;1.7;;;;;;;30.5;20.28809;992.5505;;;;
2019/06/05 12:31:50;;;;;;;2.6;2;;;;;;;30.26;21.4375;992.5781;;;;
2019/06/05 12:34:15;;;;;;;4.1;2.3;;;;;;;30.21;21.42285;992.4216;;;;
2019/06/05 12:36:41;;;;;;;3.2;2.2;;;;;;;30.49;20.99316;992.3959;;;;
2019/06/05 12:39:05;;;;;;;3;1.8;;;;;;;30.44;20.48828;992.3657;;;;
2019/06/05 12:41:31;;;;;;;3.2;2;;;;;;;30.73;20.80078;992.3995;;;;
2019/06/05 12:43:56;;;;;;;3;1.9;;;;;;;30.39;21.54004;992.3914;;;;
2019/06/05 12:46:21;;;;;;;2.5;1.8;;;;;;;30.28;21.39063;992.4075;;;;
2019/06/05 12:48:46;;;;;;;4.9;2.8;;;;;;;30.33;21.5127;992.3042;;;;
2019/06/05 12:51:11;;;;;;;2.6;1.9;;;;;;;30.52;21.34277;992.2985;;;;
2019/06/05 12:53:37;;;;;;;1.7;1.6;;;;;;;30.75;22.41992;992.2766;;;;
2019/06/05 12:56:02;;;;;;;2.8;1.8;;;;;;;30.63;22.49805;992.2143;;;;
2019/06/05 12:58:27;;;;;;;3.3;1.7;;;;;;;30.25;21.12598;992.1383;;;;
2019/06/05 13:00:52;;;;;;;1.8;1.6;;;;;;;30.34;21.77734;992.0905;;;;
2019/06/05 13:03:17;;;;;;;2.8;1.8;;;;;;;30.5;22.83789;992.0661;;;;
2019/06/05 13:05:43;;;;;;;4;2;;;;;;;30.21;22.24902;991.9656;;;;
2019/06/05 13:08:08;;;;;;;3.5;1.7;;;;;;;30.12;22.44824;991.9612;;;;
2019/06/05 13:10:33;;;;;;;3.8;2.1;;;;;;;30.13;22.99902;991.9355;;;;
2019/06/05 13:12:58;;;;;;;2.3;2;;;;;;;30.37;22.87988;991.8348;;;;
2019/06/05 13:15:23;;;;;;;2.5;1.9;;;;;;;30.36;23.74121;991.8019;;;;
2019/06/05 13:17:49;;;;;;;3.7;1.7;;;;;;;30.3;23.70215;991.8096;;;;
2019/06/05 13:20:14;;;;;;;3.1;2;;;;;;;30.2;23.01465;991.7723;;;;
2019/06/05 13:22:39;;;;;;;2.2;1.8;;;;;;;30.17;23.43262;991.7319;;;;
2019/06/05 13:25:04;;;;;;;2.9;2;;;;;;;30.26;24.99316;991.7352;;;;
2019/06/05 13:27:29;;;;;;;2.4;1.9;;;;;;;30.2;24.27148;991.6497;;;;
2019/06/05 13:29:54;;;;;;;3.1;1.8;;;;;;;30.21;24.67969;991.5848;;;;
2019/06/05 13:32:19;;;;;;;3.5;1.9;;;;;;;30.26;25.29199;991.6072;;;;
2019/06/05 13:34:45;;;;;;;3.2;2.1;;;;;;;30.05;25.89063;991.6333;;;;
2019/06/05 13:37:10;;;;;;;3.9;2.2;;;;;;;29.99;25.875;991.5881;;;;
2019/06/05 13:39:36;;;;;;;5;2.2;;;;;;;30.18;26.24609;991.4606;;;;
2019/06/05 13:42:00;;;;;;;3.1;1.9;;;;;;;30.18;25.91016;991.455;;;;
2019/06/05 13:44:26;;;;;;;3.6;2;;;;;;;30.18;26.75977;991.3563;;;;
2019/06/05 13:46:51;;;;;;;3.5;2;;;;;;;30.07;26.57422;991.3029;;;;
2019/06/05 13:49:16;;;;;;;4.4;2.1;;;;;;;30.12;25.65527;991.3261;;;;
2019/06/05 13:51:41;;;;;;;2.6;2;;;;;;;29.72;26.41016;991.2414;;;;
2019/06/05 13:54:06;;;;;;;3.3;2.2;;;;;;;29.85;26.99121;991.2555;;;;
2019/06/05 13:56:31;;;;;;;5;2;;;;;;;29.93;27.21094;991.2277;;;;
2019/06/05 13:58:56;;;;;;;3.1;2.2;;;;;;;29.82;26.8584;991.1555;;;;
2019/06/05 14:01:21;;;;;;;3.9;2.1;;;;;;;29.73;27.17578;991.0942;;;;
2019/06/05 14:03:46;;;;;;;4.1;2.2;;;;;;;29.94;27.0918;991.0446;;;;
2019/06/05 14:06:12;;;;;;;3.6;2.2;;;;;;;30.08;27.17285;991.0168;;;;
2019/06/05 14:08:37;;;;;;;3.1;2;;;;;;;30.01;26.94141;990.9894;;;;
2019/06/05 14:11:02;;;;;;;3.1;2.2;;;;;;;30.11;27.24609;990.9617;;;;
2019/06/05 14:13:27;;;;;;;3.1;2.1;;;;;;;30.1;27.31738;990.8822;;;;
2019/06/05 14:15:52;;;;;;;2.1;1.9;;;;;;;30.1;26.85156;990.9207;;;;